Time;durP1;ratioP1;P1;durP2;ratioP2;P2;SDS_P1;SDS_P2;PMS_P1;PMS_P2;Temp;Humidity;BMP_temperature;BMP_pressure;BME280_temperature;BME280_humidity;BME280_pressure;Samples;Min_cycle;Max_cycle;Signal;HPM_P1;HPM_P2
2022/11/17 00:01:38;;;;;;;;;;;;;;;;;;5073345;28;856;-69
2022/11/17 00:04:03;;;;;;;;;;;;;;;;;;5090955;28;828;-69
2022/11/17 00:06:29;;;;;;;;;;;;;;;;;;5056476;28;1259;-69
2022/11/17 00:08:54;;;;;;;;;;;;;;;;;;5072591;28;860;-69
2022/11/17 00:11:19;;;;;;;;;;;;;;;;;;5055878;28;1113;-69
2022/11/17 00:16:28;;;;;;;;;;;;;;;;;;5091422;28;643;-69
2022/11/17 00:21:37;;;;;;;;;;;;;;;;;;5075540;28;875;-69
2022/11/17 00:24:03;;;;;;;;;;;;;;;;;;5055058;28;1201;-69
2022/11/17 00:26:29;;;;;;;;;;;;;;;;;;5090799;28;793;-69
2022/11/17 00:29:04;;;;;;;;;;;;;;;;;;5071689;28;1255;-68
2022/11/17 00:34:19;;;;;;;;;;;;;;;;;;5090713;28;645;-69
2022/11/17 00:36:46;;;;;;;;;;;;;;;;;;5072118;28;1192;-69
2022/11/17 00:39:12;;;;;;;;;;;;;;;;;;5071969;28;1223;-68
2022/11/17 00:41:38;;;;;;;;;;;;;;;;;;5090440;28;892;-68
2022/11/17 00:44:03;;;;;;;;;;;;;;;;;;5089456;28;975;-69
2022/11/17 00:46:29;;;;;;;;;;;;;;;;;;5072058;28;1251;-69
2022/11/17 00:48:54;;;;;;;;;;;;;;;;;;5071638;28;1191;-69
2022/11/17 00:51:19;;;;;;;;;;;;;;;;;;5072472;28;892;-69
2022/11/17 00:53:45;;;;;;;;;;;;;;;;;;5072799;28;1965;-69
2022/11/17 00:56:11;;;;;;;;;;;;;;;;;;5091001;28;801;-68
2022/11/17 00:58:36;;;;;;;;;;;;;;;;;;5073075;28;888;-68
2022/11/17 01:01:02;;;;;;;;;;;;;;;;;;5090607;28;922;-69
2022/11/17 01:03:27;;;;;;;;;;;;;;;;;;5091219;28;860;-69
2022/11/17 01:05:52;;;;;;;;;;;;;;;;;;5089042;28;1280;-69
2022/11/17 01:08:18;;;;;;;;;;;;;;;;;;5056044;28;1207;-69
2022/11/17 01:10:43;;;;;;;;;;;;;;;;;;5090066;28;920;-69
2022/11/17 01:13:08;;;;;;;;;;;;;;;;;;5054737;28;1914;-68
2022/11/17 01:15:34;;;;;;;;;;;;;;;;;;5072106;28;1274;-68
2022/11/17 01:17:59;;;;;;;;;;;;;;;;;;5054374;28;1227;-69
2022/11/17 01:20:24;;;;;;;;;;;;;;;;;;5090138;28;785;-69
2022/11/17 01:22:52;;;;;;;;;;;;;;;;;;5071930;28;875;-69
2022/11/17 01:25:17;;;;;;;;;;;;;;;;;;5089499;28;832;-69
2022/11/17 01:27:42;;;;;;;;;;;;;;;;;;5090245;28;816;-68
2022/11/17 01:30:08;;;;;;;;;;;;;;;;;;5071863;28;1290;-68
2022/11/17 01:32:33;;;;;;;;;;;;;;;;;;5090339;28;1894;-69
2022/11/17 01:34:58;;;;;;;;;;;;;;;;;;5089428;28;880;-68
2022/11/17 01:37:24;;;;;;;;;;;;;;;;;;5072598;28;1046;-69
2022/11/17 01:39:49;;;;;;;;;;;;;;;;;;5071843;28;1026;-68
2022/11/17 01:42:14;;;;;;;;;;;;;;;;;;5071480;28;1227;-69
2022/11/17 01:44:49;;;;;;;;;;;;;;;;;;5090356;28;859;-69
2022/11/17 01:47:33;;;;;;;;;;;;;;;;;;5071439;28;1294;-68
2022/11/17 01:50:02;;;;;;;;;;;;;;;;;;5071222;28;1333;-68
2022/11/17 01:52:29;;;;;;;;;;;;;;;;;;5071619;28;1918;-69
2022/11/17 01:54:54;;;;;;;;;;;;;;;;;;5071338;28;1152;-69
2022/11/17 01:57:23;;;;;;;;;;;;;;;;;;5074534;28;916;-68
2022/11/17 01:59:53;;;;;;;;;;;;;;;;;;5092826;28;959;-69
2022/11/17 02:02:19;;;;;;;;;;;;;;;;;;5093056;28;951;-68
2022/11/17 02:05:10;;;;;;;;;;;;;;;;;;5093184;28;947;-68
2022/11/17 02:07:37;;;;;;;;;;;;;;;;;;5075445;28;1306;-68
2022/11/17 02:10:03;;;;;;;;;;;;;;;;;;5092545;28;938;-68
2022/11/17 02:12:29;;;;;;;;;;;;;;;;;;5093023;28;1953;-69
2022/11/17 02:14:55;;;;;;;;;;;;;;;;;;5092829;28;880;-69
2022/11/17 02:17:21;;;;;;;;;;;;;;;;;;5092807;28;845;-69
2022/11/17 02:20:00;;;;;;;;;;;;;;;;;;5092583;28;1003;-68
2022/11/17 02:22:34;;;;;;;;;;;;;;;;;;5093199;28;982;-69
2022/11/17 02:24:59;;;;;;;;;;;;;;;;;;5092333;28;1032;-69
2022/11/17 02:27:24;;;;;;;;;;;;;;;;;;5074713;28;1222;-69
2022/11/17 02:29:56;;;;;;;;;;;;;;;;;;5074494;28;1293;-68
2022/11/17 02:32:26;;;;;;;;;;;;;;;;;;5092745;28;1886;-69
2022/11/17 02:35:14;;;;;;;;;;;;;;;;;;5092671;28;863;-68
2022/11/17 02:37:49;;;;;;;;;;;;;;;;;;5091929;28;1320;-68
2022/11/17 02:40:21;;;;;;;;;;;;;;;;;;5092700;28;974;-68
2022/11/17 02:46:08;;;;;;;;;;;;;;;;;;5092628;28;714;-68
2022/11/17 02:48:38;;;;;;;;;;;;;;;;;;5092697;28;829;-68
2022/11/17 02:51:05;;;;;;;;;;;;;;;;;;5092294;28;908;-68
2022/11/17 02:53:31;;;;;;;;;;;;;;;;;;5092515;28;1985;-68
2022/11/17 02:55:58;;;;;;;;;;;;;;;;;;5091917;28;840;-68
2022/11/17 02:58:23;;;;;;;;;;;;;;;;;;5073963;28;1216;-68
2022/11/17 03:01:07;;;;;;;;;;;;;;;;;;5057402;28;1237;-68
2022/11/17 03:03:39;;;;;;;;;;;;;;;;;;5073835;28;1484;-69
2022/11/17 03:06:16;;;;;;;;;;;;;;;;;;5091580;28;1070;-69
2022/11/17 03:08:44;;;;;;;;;;;;;;;;;;5073447;28;1198;-69
2022/11/17 03:11:10;;;;;;;;;;;;;;;;;;5073661;28;1202;-69
2022/11/17 03:13:50;;;;;;;;;;;;;;;;;;5057422;28;1919;-68
2022/11/17 03:16:16;;;;;;;;;;;;;;;;;;5073655;28;1211;-68
2022/11/17 03:18:56;;;;;;;;;;;;;;;;;;5092286;28;860;-68
2022/11/17 03:21:40;;;;;;;;;;;;;;;;;;5091765;28;845;-69
2022/11/17 03:24:13;;;;;;;;;;;;;;;;;;5091147;28;876;-69
2022/11/17 03:26:41;;;;;;;;;;;;;;;;;;5073515;28;1087;-69
2022/11/17 03:29:09;;;;;;;;;;;;;;;;;;5091268;28;849;-69
2022/11/17 03:31:36;;;;;;;;;;;;;;;;;;5073791;28;1266;-69
2022/11/17 03:34:03;;;;;;;;;;;;;;;;;;5090767;28;1980;-69
2022/11/17 03:36:32;;;;;;;;;;;;;;;;;;5073266;28;1314;-69
2022/11/17 03:39:01;;;;;;;;;;;;;;;;;;5089640;28;1290;-69
2022/11/17 03:41:29;;;;;;;;;;;;;;;;;;5091554;28;1227;-69
2022/11/17 03:43:56;;;;;;;;;;;;;;;;;;5091083;28;916;-69
2022/11/17 03:46:22;;;;;;;;;;;;;;;;;;5072612;28;1164;-69
2022/11/17 03:48:57;;;;;;;;;;;;;;;;;;5072890;28;1222;-69
2022/11/17 03:51:24;;;;;;;;;;;;;;;;;;5090698;28;891;-69
2022/11/17 03:53:51;;;;;;;;;;;;;;;;;;5091324;28;1979;-69
2022/11/17 03:56:19;;;;;;;;;;;;;;;;;;5072038;28;1184;-69
2022/11/17 03:58:49;;;;;;;;;;;;;;;;;;5072947;28;1020;-69
2022/11/17 04:01:15;;;;;;;;;;;;;;;;;;5072710;28;1305;-69
2022/11/17 04:03:40;;;;;;;;;;;;;;;;;;5072920;28;813;-69
2022/11/17 04:06:05;;;;;;;;;;;;;;;;;;5072124;28;1274;-69
2022/11/17 04:08:31;;;;;;;;;;;;;;;;;;5056120;28;1366;-69
2022/11/17 04:16:24;;;;;;;;;;;;;;;;;;5075433;28;686;-69
2022/11/17 04:18:50;;;;;;;;;;;;;;;;;;5072237;28;1054;-69
2022/11/17 04:21:15;;;;;;;;;;;;;;;;;;5055175;28;1242;-68
2022/11/17 04:23:40;;;;;;;;;;;;;;;;;;5091675;28;933;-68
2022/11/17 04:28:50;;;;;;;;;;;;;;;;;;5076210;28;747;-68
2022/11/17 04:31:17;;;;;;;;;;;;;;;;;;5056002;28;1195;-68
2022/11/17 04:33:43;;;;;;;;;;;;;;;;;;5091304;28;1898;-68
2022/11/17 04:36:10;;;;;;;;;;;;;;;;;;5090577;28;935;-69
2022/11/17 04:38:36;;;;;;;;;;;;;;;;;;5091838;28;1171;-69
2022/11/17 04:43:46;;;;;;;;;;;;;;;;;;5091814;28;701;-69
2022/11/17 04:46:12;;;;;;;;;;;;;;;;;;5072403;28;1294;-69
2022/11/17 04:48:37;;;;;;;;;;;;;;;;;;5073068;28;1231;-69
2022/11/17 04:51:02;;;;;;;;;;;;;;;;;;5090969;28;857;-69
2022/11/17 04:53:28;;;;;;;;;;;;;;;;;;5072367;28;1977;-69
2022/11/17 04:55:57;;;;;;;;;;;;;;;;;;5073087;28;1269;-69
2022/11/17 04:58:23;;;;;;;;;;;;;;;;;;5072282;28;1176;-69
2022/11/17 05:00:48;;;;;;;;;;;;;;;;;;5090815;28;816;-69
2022/11/17 05:03:13;;;;;;;;;;;;;;;;;;5090265;28;1088;-69
2022/11/17 05:05:39;;;;;;;;;;;;;;;;;;5073595;28;1242;-69
2022/11/17 05:08:04;;;;;;;;;;;;;;;;;;5055959;28;1311;-69
2022/11/17 05:13:25;;;;;;;;;;;;;;;;;;5090178;28;1910;-69
2022/11/17 05:18:36;;;;;;;;;;;;;;;;;;5091243;28;767;-68
2022/11/17 05:21:02;;;;;;;;;;;;;;;;;;5072301;28;880;-69
2022/11/17 05:26:11;;;;;;;;;;;;;;;;;;5089754;28;694;-69
2022/11/17 05:28:36;;;;;;;;;;;;;;;;;;5071863;28;1283;-69
2022/11/17 05:31:02;;;;;;;;;;;;;;;;;;5073826;28;887;-69
2022/11/17 05:33:27;;;;;;;;;;;;;;;;;;5075311;28;1972;-68
2022/11/17 05:35:52;;;;;;;;;;;;;;;;;;5094139;28;883;-68
2022/11/17 05:38:17;;;;;;;;;;;;;;;;;;5074388;28;1277;-69
2022/11/17 05:40:43;;;;;;;;;;;;;;;;;;5075833;28;1157;-69
2022/11/17 05:43:08;;;;;;;;;;;;;;;;;;5093265;28;817;-68
2022/11/17 05:45:33;;;;;;;;;;;;;;;;;;5075875;28;808;-68
2022/11/17 05:47:58;;;;;;;;;;;;;;;;;;5093500;28;876;-68
2022/11/17 05:50:23;;;;;;;;;;;;;;;;;;5093227;28;986;-69
2022/11/17 05:52:49;;;;;;;;;;;;;;;;;;5076222;28;1917;-68
2022/11/17 05:55:14;;;;;;;;;;;;;;;;;;5058795;28;1140;-68
2022/11/17 05:57:39;;;;;;;;;;;;;;;;;;5094829;28;829;-68
2022/11/17 06:00:05;;;;;;;;;;;;;;;;;;5075279;28;1169;-67
2022/11/17 06:02:35;;;;;;;;;;;;;;;;;;5074087;28;1278;-68
2022/11/17 06:05:01;;;;;;;;;;;;;;;;;;5074245;28;1203;-67
2022/11/17 06:07:26;;;;;;;;;;;;;;;;;;5073588;28;1291;-68
2022/11/17 06:09:52;;;;;;;;;;;;;;;;;;5073973;28;1383;-67
2022/11/17 06:12:17;;;;;;;;;;;;;;;;;;5079615;28;1918;-67
2022/11/17 06:14:42;;;;;;;;;;;;;;;;;;5019569;28;1393;-68
2022/11/17 06:17:16;;;;;;;;;;;;;;;;;;5035952;28;1181;-67
2022/11/17 06:19:45;;;;;;;;;;;;;;;;;;5052700;28;1200;-68
2022/11/17 06:22:10;;;;;;;;;;;;;;;;;;5034498;28;1240;-67
2022/11/17 06:24:36;;;;;;;;;;;;;;;;;;5052309;28;1188;-68
2022/11/17 06:27:02;;;;;;;;;;;;;;;;;;5088642;28;1152;-68
2022/11/17 06:29:28;;;;;;;;;;;;;;;;;;5030705;28;1286;-67
2022/11/17 06:31:55;;;;;;;;;;;;;;;;;;5053246;28;1047;-67
2022/11/17 06:34:21;;;;;;;;;;;;;;;;;;5052125;28;1949;-68
2022/11/17 06:36:46;;;;;;;;;;;;;;;;;;5034676;28;1355;-71
2022/11/17 06:39:11;;;;;;;;;;;;;;;;;;5051744;28;1101;-65
2022/11/17 06:41:38;;;;;;;;;;;;;;;;;;5033623;28;829;-65
2022/11/17 06:44:04;;;;;;;;;;;;;;;;;;5052286;28;849;-65
2022/11/17 06:46:36;;;;;;;;;;;;;;;;;;5033730;28;917;-65
2022/11/17 06:49:03;;;;;;;;;;;;;;;;;;5018844;28;1358;-65
2022/11/17 06:51:28;;;;;;;;;;;;;;;;;;5033610;28;881;-65
2022/11/17 06:53:53;;;;;;;;;;;;;;;;;;5033938;28;1959;-65
2022/11/17 06:56:19;;;;;;;;;;;;;;;;;;5033604;28;790;-65
2022/11/17 06:58:44;;;;;;;;;;;;;;;;;;5017409;28;1271;-65
2022/11/17 07:01:10;;;;;;;;;;;;;;;;;;5033692;28;889;-65
2022/11/17 07:03:36;;;;;;;;;;;;;;;;;;5033658;28;1152;-65
2022/11/17 07:06:03;;;;;;;;;;;;;;;;;;5051815;28;845;-65
2022/11/17 07:08:28;;;;;;;;;;;;;;;;;;5033203;28;1291;-65
2022/11/17 07:10:54;;;;;;;;;;;;;;;;;;5051624;28;877;-65
2022/11/17 07:13:21;;;;;;;;;;;;;;;;;;5051404;28;1945;-65
2022/11/17 07:15:46;;;;;;;;;;;;;;;;;;5051631;28;889;-65
2022/11/17 07:18:12;;;;;;;;;;;;;;;;;;5050871;28;866;-65
2022/11/17 07:20:37;;;;;;;;;;;;;;;;;;5034259;28;897;-65
2022/11/17 07:23:03;;;;;;;;;;;;;;;;;;5051758;28;999;-65
2022/11/17 07:25:28;;;;;;;;;;;;;;;;;;5034669;28;1133;-65
2022/11/17 07:27:57;;;;;;;;;;;;;;;;;;5034404;28;1367;-65
2022/11/17 07:30:23;;;;;;;;;;;;;;;;;;5051427;28;857;-65
2022/11/17 07:32:48;;;;;;;;;;;;;;;;;;5052200;28;1894;-65
2022/11/17 07:35:14;;;;;;;;;;;;;;;;;;5033764;28;1067;-65
2022/11/17 07:37:40;;;;;;;;;;;;;;;;;;5017217;28;1216;-65
2022/11/17 07:40:05;;;;;;;;;;;;;;;;;;5050834;28;1121;-65
2022/11/17 07:42:31;;;;;;;;;;;;;;;;;;5050210;28;912;-65
2022/11/17 07:44:56;;;;;;;;;;;;;;;;;;5050769;28;861;-65
2022/11/17 07:47:21;;;;;;;;;;;;;;;;;;5050406;28;979;-65
2022/11/17 07:49:47;;;;;;;;;;;;;;;;;;5033080;28;841;-66
2022/11/17 07:52:12;;;;;;;;;;;;;;;;;;5032236;28;1968;-64
2022/11/17 07:54:37;;;;;;;;;;;;;;;;;;5050686;28;893;-65
2022/11/17 07:57:03;;;;;;;;;;;;;;;;;;5032956;28;979;-64
2022/11/17 07:59:28;;;;;;;;;;;;;;;;;;5031947;28;1390;-64
2022/11/17 08:01:53;;;;;;;;;;;;;;;;;;5050139;28;1200;-65
2022/11/17 08:04:19;;;;;;;;;;;;;;;;;;5030533;28;1164;-66
2022/11/17 08:06:44;;;;;;;;;;;;;;;;;;5066259;28;1285;-65
2022/11/17 08:09:12;;;;;;;;;;;;;;;;;;5072502;28;735;-66
2022/11/17 08:11:37;;;;;;;;;;;;;;;;;;5055961;28;1299;-65
2022/11/17 08:14:02;;;;;;;;;;;;;;;;;;5090955;28;1909;-66
2022/11/17 08:16:29;;;;;;;;;;;;;;;;;;5071721;28;1155;-66
2022/11/17 08:18:56;;;;;;;;;;;;;;;;;;5090669;28;985;-66
2022/11/17 08:21:22;;;;;;;;;;;;;;;;;;5090076;28;837;-66
2022/11/17 08:23:51;;;;;;;;;;;;;;;;;;5072372;28;1338;-66
2022/11/17 08:26:17;;;;;;;;;;;;;;;;;;5072392;28;1339;-65
2022/11/17 08:28:42;;;;;;;;;;;;;;;;;;5091182;28;813;-65
2022/11/17 08:31:07;;;;;;;;;;;;;;;;;;5072040;28;810;-65
2022/11/17 08:33:33;;;;;;;;;;;;;;;;;;5090475;28;1890;-65
2022/11/17 08:36:00;;;;;;;;;;;;;;;;;;5072465;28;1200;-65
2022/11/17 08:38:28;;;;;;;;;;;;;;;;;;5071501;28;1374;-65
2022/11/17 08:40:58;;;;;;;;;;;;;;;;;;5090296;28;821;-65
2022/11/17 08:43:23;;;;;;;;;;;;;;;;;;5071397;28;1207;-65
2022/11/17 08:45:48;;;;;;;;;;;;;;;;;;5088997;28;1293;-65
2022/11/17 08:48:14;;;;;;;;;;;;;;;;;;5091036;28;891;-65
2022/11/17 08:50:39;;;;;;;;;;;;;;;;;;5073597;28;900;-65
2022/11/17 08:53:04;;;;;;;;;;;;;;;;;;5072990;28;1905;-65
2022/11/17 08:55:30;;;;;;;;;;;;;;;;;;5073118;28;1134;-65
2022/11/17 08:57:55;;;;;;;;;;;;;;;;;;5073023;28;1262;-65
2022/11/17 09:00:20;;;;;;;;;;;;;;;;;;5055815;28;1184;-66
2022/11/17 09:02:46;;;;;;;;;;;;;;;;;;5073020;28;1282;-65
2022/11/17 09:05:11;;;;;;;;;;;;;;;;;;5091444;28;1058;-65
2022/11/17 09:07:36;;;;;;;;;;;;;;;;;;5077314;28;718;-65
2022/11/17 09:10:05;;;;;;;;;;;;;;;;;;5076242;28;883;-65
2022/11/17 09:12:30;;;;;;;;;;;;;;;;;;5075586;28;1901;-65
2022/11/17 09:14:55;;;;;;;;;;;;;;;;;;5094368;28;1041;-65
2022/11/17 09:17:20;;;;;;;;;;;;;;;;;;5093769;28;903;-65
2022/11/17 09:19:46;;;;;;;;;;;;;;;;;;5059217;28;1256;-65
2022/11/17 09:22:11;;;;;;;;;;;;;;;;;;5058793;28;1278;-66
2022/11/17 09:24:36;;;;;;;;;;;;;;;;;;5094552;28;933;-66
2022/11/17 09:27:02;;;;;;;;;;;;;;;;;;5076029;28;821;-66
2022/11/17 09:29:28;;;;;;;;;;;;;;;;;;5075252;28;1192;-66
2022/11/17 09:31:53;;;;;;;;;;;;;;;;;;5093824;28;1335;-66
2022/11/17 09:34:18;;;;;;;;;;;;;;;;;;5075259;28;1965;-65
2022/11/17 09:36:43;;;;;;;;;;;;;;;;;;5075642;28;1059;-66
2022/11/17 09:39:09;;;;;;;;;;;;;;;;;;5075887;28;1089;-65
2022/11/17 09:41:40;;;;;;;;;;;;;;;;;;5092317;28;1100;-66
2022/11/17 09:44:17;;;;;;;;;;;;;;;;;;5094091;28;829;-66
2022/11/17 09:46:53;;;;;;;;;;;;;;;;;;5092477;28;1171;-65
2022/11/17 09:49:34;;;;;;;;;;;;;;;;;;5093475;28;903;-66
2022/11/17 09:52:02;;;;;;;;;;;;;;;;;;5093335;28;836;-66
2022/11/17 09:54:32;;;;;;;;;;;;;;;;;;5074706;28;1927;-66
2022/11/17 09:56:58;;;;;;;;;;;;;;;;;;5093760;28;841;-66
2022/11/17 09:59:26;;;;;;;;;;;;;;;;;;5092931;28;983;-66
2022/11/17 10:01:51;;;;;;;;;;;;;;;;;;5093574;28;849;-66
2022/11/17 10:04:17;;;;;;;;;;;;;;;;;;5075137;28;1147;-65
2022/11/17 10:06:44;;;;;;;;;;;;;;;;;;5075805;28;801;-65
2022/11/17 10:09:28;;;;;;;;;;;;;;;;;;5093691;28;1242;-66
2022/11/17 10:11:56;;;;;;;;;;;;;;;;;;5053420;28;1199;-65
2022/11/17 10:14:22;;;;;;;;;;;;;;;;;;5051292;28;1906;-66
2022/11/17 10:16:52;;;;;;;;;;;;;;;;;;5089568;28;1218;-66
2022/11/17 10:19:18;;;;;;;;;;;;;;;;;;5091602;28;1219;-66
2022/11/17 10:21:46;;;;;;;;;;;;;;;;;;5091588;28;1238;-66
2022/11/17 10:24:30;;;;;;;;;;;;;;;;;;5091299;28;1219;-66
2022/11/17 10:26:56;;;;;;;;;;;;;;;;;;5074729;28;1230;-65
2022/11/17 10:29:22;;;;;;;;;;;;;;;;;;5068736;28;1128;-65
2022/11/17 10:31:47;;;;;;;;;;;;;;;;;;5093694;28;1160;-65
2022/11/17 10:34:34;;;;;;;;;;;;;;;;;;5093332;28;1906;-65
2022/11/17 10:37:05;;;;;;;;;;;;;;;;;;5074987;28;1231;-65
2022/11/17 10:39:38;;;;;;;;;;;;;;;;;;5092825;28;1210;-66
2022/11/17 10:42:17;;;;;;;;;;;;;;;;;;5093868;28;916;-65
2022/11/17 10:44:43;;;;;;;;;;;;;;;;;;5093425;28;900;-66
2022/11/17 10:47:24;;;;;;;;;;;;;;;;;;5075573;28;821;-66
2022/11/17 10:50:04;;;;;;;;;;;;;;;;;;5092130;28;833;-65
2022/11/17 10:52:29;;;;;;;;;;;;;;;;;;5061162;28;1977;-66
2022/11/17 10:55:14;;;;;;;;;;;;;;;;;;5050715;28;1271;-66
2022/11/17 10:57:42;;;;;;;;;;;;;;;;;;5090445;28;1291;-66
2022/11/17 11:00:20;;;;;;;;;;;;;;;;;;5064206;28;1223;-65
2022/11/17 11:02:45;;;;;;;;;;;;;;;;;;5050520;28;1224;-65
2022/11/17 11:05:11;;;;;;;;;;;;;;;;;;5050794;28;861;-66
2022/11/17 11:07:36;;;;;;;;;;;;;;;;;;5051166;28;665;-66
2022/11/17 11:10:17;;;;;;;;;;;;;;;;;;5050528;28;1274;-66
2022/11/17 11:12:51;;;;;;;;;;;;;;;;;;5051710;28;1963;-66
2022/11/17 11:15:21;;;;;;;;;;;;;;;;;;5050739;28;1330;-66
2022/11/17 11:17:46;;;;;;;;;;;;;;;;;;5050563;28;1354;-65
2022/11/17 11:20:16;;;;;;;;;;;;;;;;;;5052068;28;824;-66
2022/11/17 11:22:53;;;;;;;;;;;;;;;;;;5050733;28;1493;-66
2022/11/17 11:25:25;;;;;;;;;;;;;;;;;;5051286;28;868;-66
2022/11/17 11:28:08;;;;;;;;;;;;;;;;;;5051119;28;848;-66
2022/11/17 11:30:44;;;;;;;;;;;;;;;;;;5049722;28;1307;-66
2022/11/17 11:33:16;;;;;;;;;;;;;;;;;;5051591;28;1909;-66
2022/11/17 11:35:51;;;;;;;;;;;;;;;;;;5051738;28;876;-66
2022/11/17 11:38:29;;;;;;;;;;;;;;;;;;5051069;28;1177;-66
2022/11/17 11:41:12;;;;;;;;;;;;;;;;;;5049773;28;1245;-66
2022/11/17 11:43:41;;;;;;;;;;;;;;;;;;5050111;28;1330;-66
2022/11/17 11:46:21;;;;;;;;;;;;;;;;;;5049818;28;1212;-66
2022/11/17 11:48:48;;;;;;;;;;;;;;;;;;5051190;28;884;-66
2022/11/17 11:51:16;;;;;;;;;;;;;;;;;;5050575;28;1011;-66
2022/11/17 11:53:53;;;;;;;;;;;;;;;;;;5049632;28;1954;-66
2022/11/17 11:56:29;;;;;;;;;;;;;;;;;;5050047;28;1235;-66
2022/11/17 11:59:03;;;;;;;;;;;;;;;;;;5051673;28;999;-66
2022/11/17 12:01:35;;;;;;;;;;;;;;;;;;5050253;28;1318;-66
2022/11/17 12:04:06;;;;;;;;;;;;;;;;;;5052625;28;995;-66
2022/11/17 12:06:42;;;;;;;;;;;;;;;;;;5051910;28;991;-66
2022/11/17 12:09:30;;;;;;;;;;;;;;;;;;5052294;28;868;-66
2022/11/17 12:11:59;;;;;;;;;;;;;;;;;;5049786;28;1239;-66
2022/11/17 12:14:25;;;;;;;;;;;;;;;;;;5048878;28;2205;-66
2022/11/17 12:16:59;;;;;;;;;;;;;;;;;;5050907;28;889;-66
2022/11/17 12:19:51;;;;;;;;;;;;;;;;;;5050542;28;916;-65
2022/11/17 12:22:28;;;;;;;;;;;;;;;;;;5047475;28;1124;-65
2022/11/17 12:24:59;;;;;;;;;;;;;;;;;;5049366;28;1121;-65
2022/11/17 12:27:41;;;;;;;;;;;;;;;;;;5050153;28;963;-66
2022/11/17 12:30:36;;;;;;;;;;;;;;;;;;5049103;28;1206;-65
2022/11/17 12:33:07;;;;;;;;;;;;;;;;;;5036732;28;1894;-65
2022/11/17 12:35:33;;;;;;;;;;;;;;;;;;5050132;28;947;-65
2022/11/17 12:38:17;;;;;;;;;;;;;;;;;;5050376;28;1165;-65
2022/11/17 12:40:46;;;;;;;;;;;;;;;;;;5049696;28;857;-65
2022/11/17 12:43:15;;;;;;;;;;;;;;;;;;5050539;28;904;-65
2022/11/17 12:45:59;;;;;;;;;;;;;;;;;;5048985;28;1227;-68
2022/11/17 12:48:29;;;;;;;;;;;;;;;;;;5050132;28;864;-67
2022/11/17 12:51:05;;;;;;;;;;;;;;;;;;5050174;28;980;-66
2022/11/17 12:53:30;;;;;;;;;;;;;;;;;;5050375;28;1946;-66
2022/11/17 12:56:06;;;;;;;;;;;;;;;;;;5048750;28;1213;-66
2022/11/17 12:58:34;;;;;;;;;;;;;;;;;;5048276;28;1341;-65
2022/11/17 13:01:08;;;;;;;;;;;;;;;;;;5050684;28;849;-65
2022/11/17 13:03:39;;;;;;;;;;;;;;;;;;5050385;28;903;-66
2022/11/17 13:06:06;;;;;;;;;;;;;;;;;;5050408;28;995;-66
2022/11/17 13:08:31;;;;;;;;;;;;;;;;;;5050250;28;994;-66
2022/11/17 13:11:04;;;;;;;;;;;;;;;;;;5048943;28;892;-66
2022/11/17 13:13:29;;;;;;;;;;;;;;;;;;5049930;28;1886;-66
2022/11/17 13:15:57;;;;;;;;;;;;;;;;;;5050102;28;943;-65
2022/11/17 13:18:25;;;;;;;;;;;;;;;;;;5048830;28;1477;-64
2022/11/17 13:20:51;;;;;;;;;;;;;;;;;;5050729;28;849;-64
2022/11/17 13:23:25;;;;;;;;;;;;;;;;;;5048319;28;999;-64
2022/11/17 13:26:06;;;;;;;;;;;;;;;;;;5048861;28;1211;-64
2022/11/17 13:28:32;;;;;;;;;;;;;;;;;;5050824;28;907;-65
2022/11/17 13:30:58;;;;;;;;;;;;;;;;;;5051718;28;774;-65
2022/11/17 13:33:24;;;;;;;;;;;;;;;;;;5050444;28;1914;-66
2022/11/17 13:36:03;;;;;;;;;;;;;;;;;;5049454;28;1192;-65
2022/11/17 13:38:28;;;;;;;;;;;;;;;;;;5050339;28;1054;-65
2022/11/17 13:40:53;;;;;;;;;;;;;;;;;;5051153;28;932;-65
2022/11/17 13:43:19;;;;;;;;;;;;;;;;;;5050184;28;990;-65
2022/11/17 13:45:46;;;;;;;;;;;;;;;;;;5050656;28;902;-65
2022/11/17 13:48:31;;;;;;;;;;;;;;;;;;5049735;28;837;-65
2022/11/17 13:51:13;;;;;;;;;;;;;;;;;;5050454;28;912;-65
2022/11/17 13:53:40;;;;;;;;;;;;;;;;;;5053384;28;1963;-65
2022/11/17 13:56:19;;;;;;;;;;;;;;;;;;5053417;28;828;-66
2022/11/17 13:58:46;;;;;;;;;;;;;;;;;;5053132;28;829;-66
2022/11/17 14:01:12;;;;;;;;;;;;;;;;;;5053087;28;798;-66
2022/11/17 14:03:39;;;;;;;;;;;;;;;;;;5051056;28;1238;-66
2022/11/17 14:06:09;;;;;;;;;;;;;;;;;;5052808;28;948;-66
2022/11/17 14:08:35;;;;;;;;;;;;;;;;;;5043999;28;1322;-66
2022/11/17 14:11:06;;;;;;;;;;;;;;;;;;5020899;28;1189;-66
2022/11/17 14:13:36;;;;;;;;;;;;;;;;;;5050952;28;1953;-66
2022/11/17 14:16:02;;;;;;;;;;;;;;;;;;5060216;28;1168;-66
2022/11/17 14:18:29;;;;;;;;;;;;;;;;;;5051940;28;1219;-66
2022/11/17 14:21:08;;;;;;;;;;;;;;;;;;5052402;28;1112;-66
2022/11/17 14:23:33;;;;;;;;;;;;;;;;;;5033799;28;1204;-67
2022/11/17 14:25:58;;;;;;;;;;;;;;;;;;5036849;28;1369;-65
2022/11/17 14:28:24;;;;;;;;;;;;;;;;;;5055004;28;1156;-65
2022/11/17 14:30:50;;;;;;;;;;;;;;;;;;5074213;28;916;-68
2022/11/17 14:33:15;;;;;;;;;;;;;;;;;;5073239;28;1902;-67
2022/11/17 14:35:41;;;;;;;;;;;;;;;;;;5073413;28;951;-71
2022/11/17 14:38:13;;;;;;;;;;;;;;;;;;5054774;28;1178;-67
2022/11/17 14:40:38;;;;;;;;;;;;;;;;;;5059209;28;1247;-67
2022/11/17 14:43:04;;;;;;;;;;;;;;;;;;5067330;28;1215;-68
2022/11/17 14:45:29;;;;;;;;;;;;;;;;;;5073468;28;1148;-66
2022/11/17 14:47:54;;;;;;;;;;;;;;;;;;5035773;28;1303;-67
2022/11/17 14:50:20;;;;;;;;;;;;;;;;;;5053135;28;908;-68
2022/11/17 14:52:46;;;;;;;;;;;;;;;;;;5053618;28;1957;-66
2022/11/17 14:55:12;;;;;;;;;;;;;;;;;;5054166;28;828;-66
2022/11/17 14:57:38;;;;;;;;;;;;;;;;;;5035577;28;1162;-67
2022/11/17 15:00:05;;;;;;;;;;;;;;;;;;5053461;28;916;-66
2022/11/17 15:02:30;;;;;;;;;;;;;;;;;;5051276;28;1143;-66
2022/11/17 15:04:57;;;;;;;;;;;;;;;;;;5053223;28;999;-69
2022/11/17 15:07:23;;;;;;;;;;;;;;;;;;5035717;28;1365;-67
2022/11/17 15:09:48;;;;;;;;;;;;;;;;;;5052935;28;880;-66
2022/11/17 15:12:14;;;;;;;;;;;;;;;;;;5052804;28;1259;-67
2022/11/17 15:14:39;;;;;;;;;;;;;;;;;;5036105;28;1898;-68
2022/11/17 15:17:04;;;;;;;;;;;;;;;;;;5054569;28;999;-68
2022/11/17 15:19:29;;;;;;;;;;;;;;;;;;5052487;28;909;-68
2022/11/17 15:21:55;;;;;;;;;;;;;;;;;;5054537;28;868;-68
2022/11/17 15:24:20;;;;;;;;;;;;;;;;;;5052400;28;1274;-67
2022/11/17 15:26:46;;;;;;;;;;;;;;;;;;5052839;28;1231;-67
2022/11/17 15:29:13;;;;;;;;;;;;;;;;;;5052286;28;1492;-67
2022/11/17 15:31:38;;;;;;;;;;;;;;;;;;5035584;28;1375;-66
2022/11/17 15:34:04;;;;;;;;;;;;;;;;;;5051907;28;1898;-66
2022/11/17 15:36:30;;;;;;;;;;;;;;;;;;5051247;28;1152;-68
2022/11/17 15:38:55;;;;;;;;;;;;;;;;;;5052695;28;1236;-68
2022/11/17 15:41:21;;;;;;;;;;;;;;;;;;5052294;28;892;-71
2022/11/17 15:43:46;;;;;;;;;;;;;;;;;;5053039;28;848;-68
2022/11/17 15:46:12;;;;;;;;;;;;;;;;;;5052187;28;1220;-69
2022/11/17 15:48:41;;;;;;;;;;;;;;;;;;5052409;28;1034;-66
2022/11/17 15:51:09;;;;;;;;;;;;;;;;;;5050936;28;1358;-67
2022/11/17 15:53:35;;;;;;;;;;;;;;;;;;5051349;28;1918;-69
2022/11/17 15:56:29;;;;;;;;;;;;;;;;;;5052677;28;813;-71
2022/11/17 15:58:56;;;;;;;;;;;;;;;;;;5038585;28;1180;-70
2022/11/17 16:01:25;;;;;;;;;;;;;;;;;;5051243;28;837;-70
2022/11/17 16:03:51;;;;;;;;;;;;;;;;;;5050552;28;1203;-71
2022/11/17 16:06:16;;;;;;;;;;;;;;;;;;5050044;28;1089;-69
2022/11/17 16:08:42;;;;;;;;;;;;;;;;;;5051969;28;873;-71
2022/11/17 16:11:09;;;;;;;;;;;;;;;;;;5034369;28;1216;-71
2022/11/17 16:13:34;;;;;;;;;;;;;;;;;;5052248;28;1905;-69
2022/11/17 16:15:59;;;;;;;;;;;;;;;;;;5051741;28;1200;-72
2022/11/17 16:18:25;;;;;;;;;;;;;;;;;;5048957;28;1368;-72
2022/11/17 16:20:50;;;;;;;;;;;;;;;;;;5033555;28;1296;-72
2022/11/17 16:23:15;;;;;;;;;;;;;;;;;;5051009;28;912;-72
2022/11/17 16:25:42;;;;;;;;;;;;;;;;;;5049807;28;802;-72
2022/11/17 16:28:08;;;;;;;;;;;;;;;;;;5050019;28;1342;-72
2022/11/17 16:30:34;;;;;;;;;;;;;;;;;;5051164;28;825;-70
2022/11/17 16:32:59;;;;;;;;;;;;;;;;;;5033552;28;1910;-72
2022/11/17 16:35:24;;;;;;;;;;;;;;;;;;5037932;28;1200;-70
2022/11/17 16:37:50;;;;;;;;;;;;;;;;;;5073783;28;869;-70
2022/11/17 16:40:15;;;;;;;;;;;;;;;;;;5072751;28;1342;-70
2022/11/17 16:42:41;;;;;;;;;;;;;;;;;;5073281;28;1062;-70
2022/11/17 16:45:07;;;;;;;;;;;;;;;;;;5091240;28;908;-70
2022/11/17 16:47:32;;;;;;;;;;;;;;;;;;5073274;28;1306;-70
2022/11/17 16:49:57;;;;;;;;;;;;;;;;;;5092042;28;888;-70
2022/11/17 16:52:22;;;;;;;;;;;;;;;;;;5056307;28;1219;-70
2022/11/17 16:54:48;;;;;;;;;;;;;;;;;;5073227;28;1906;-70
2022/11/17 16:57:13;;;;;;;;;;;;;;;;;;5091322;28;892;-70
2022/11/17 16:59:38;;;;;;;;;;;;;;;;;;5092766;28;940;-70
2022/11/17 17:02:03;;;;;;;;;;;;;;;;;;5074165;28;896;-70
2022/11/17 17:04:29;;;;;;;;;;;;;;;;;;5091754;28;853;-70
2022/11/17 17:06:54;;;;;;;;;;;;;;;;;;5057459;28;1334;-70
2022/11/17 17:09:20;;;;;;;;;;;;;;;;;;5073076;28;992;-70
2022/11/17 17:11:45;;;;;;;;;;;;;;;;;;5073276;28;1267;-71
2022/11/17 17:14:11;;;;;;;;;;;;;;;;;;5073830;28;1951;-70
2022/11/17 17:16:45;;;;;;;;;;;;;;;;;;5091235;28;940;-70
2022/11/17 17:19:11;;;;;;;;;;;;;;;;;;5073705;28;1120;-70
2022/11/17 17:21:37;;;;;;;;;;;;;;;;;;5073442;28;1273;-70
2022/11/17 17:24:03;;;;;;;;;;;;;;;;;;5073811;28;1191;-70
2022/11/17 17:26:29;;;;;;;;;;;;;;;;;;5074173;28;896;-70
2022/11/17 17:28:55;;;;;;;;;;;;;;;;;;5093838;28;1199;-70
2022/11/17 17:31:21;;;;;;;;;;;;;;;;;;5076769;28;1219;-70
2022/11/17 17:33:48;;;;;;;;;;;;;;;;;;5076987;28;1945;-70
2022/11/17 17:36:15;;;;;;;;;;;;;;;;;;5095062;28;900;-71
2022/11/17 17:38:40;;;;;;;;;;;;;;;;;;5094565;28;1060;-69
2022/11/17 17:41:07;;;;;;;;;;;;;;;;;;5076752;28;1207;-70
2022/11/17 17:43:32;;;;;;;;;;;;;;;;;;5076277;28;1423;-70
2022/11/17 17:45:59;;;;;;;;;;;;;;;;;;5077083;28;896;-70
2022/11/17 17:48:24;;;;;;;;;;;;;;;;;;5076131;28;829;-70